Stations météo

Publicité
Mont Aigoual, France (7560): Température de l'air & dewpoint: 08.07.2020 17:00:00 - 14.07.2020 17:00:00 (CEST)Mont Aigoual, France (7560): Vitesse du vent & gusts: 08.07.2020 17:00:00 - 14.07.2020 17:00:00 (CEST)Mont Aigoual, France (7560): Direction du vent: 08.07.2020 17:00:00 - 14.07.2020 17:00:00 (CEST)Mont Aigoual, France (7560): visibility: 08.07.2020 17:00:00 - 14.07.2020 17:00:00 (CEST)Mont Aigoual, France (7560): Quantités de précipitations: 08.07.2020 17:00:00 - 14.07.2020 17:00:00 (CEST)
Date & Time tt [°C] td [°C] ff [km/h] ff [knt] fx [km/h] fx [knt] dd vv [km] rr [mm]
14.07.2020 17:00:00 16,7 6,2 21 11 37 20 N 20 0,0
14.07.2020 16:00:00 17,4 6,6 15 8 37 20 NNW 20 0,0
14.07.2020 15:00:00 16,3 3,7 18 10 37 20 N 20 0,0
14.07.2020 14:00:00 16,2 3,3 20 11 44 24 N 19 0,0
14.07.2020 13:00:00 15,6 4,3 21 12 42 23 N 20 0,0
14.07.2020 12:00:00 14,5 4,5 22 12 45 25 NNE 20 0,0
14.07.2020 11:00:00 13,6 3,4 29 15 55 30 N 20 0,0
14.07.2020 10:00:00 13,3 4,4 24 13 43 23 N 20 0,0
14.07.2020 09:00:00 12,5 3,4 27 15 42 23 N 20 0,0
14.07.2020 08:00:00 11,8 2,8 27 15 46 25 N 20 0,0
14.07.2020 07:00:00 11,1 1,9 35 19 50 27 NNW 20 0,0
14.07.2020 06:00:00 10,9 1,9 41 22 50 27 NNW 20 0,0
14.07.2020 05:00:00 11,3 1,2 40 22 53 28 NNW 20 0,0
14.07.2020 04:00:00 11,7 1,0 37 20 50 27 N 20 0,0
14.07.2020 03:00:00 11,6 1,2 37 20 47 25 N 20 0,0
14.07.2020 02:00:00 11,9 1,2 37 20 50 27 N 20 0,0
14.07.2020 01:00:00 12,7 2,0 40 22 49 26 NNW 20 0,0
14.07.2020 00:00:00 13,1 5,5 33 18 44 24 NNW 20 0,0
13.07.2020 23:00:00 13,7 6,1 37 20 53 29 NNW 20 0,0
13.07.2020 22:00:00 14,8 5,8 34 18 45 24 NNW 20 0,0
13.07.2020 21:00:00 16,4 6,5 34 18 53 29 NNW 20 0,0
13.07.2020 20:00:00 17,0 6,5 32 17 53 28 NNW 20 0,0
13.07.2020 19:00:00 17,8 5,7 31 17 46 25 NNW 20 0,0
13.07.2020 18:00:00 18,4 6,6 23 12 42 23 N 20 0,0
13.07.2020 17:00:00 19,9 5,5 22 12 39 21 NW 20 0,0
13.07.2020 16:00:00 19,4 1,4 17 9 41 22 WNW 20 0,0
13.07.2020 15:00:00 19,0 1,0 17 9 33 18 NNW 20 0,0
13.07.2020 14:00:00 18,0 0,6 11 6 32 17 WNW 20 0,0
13.07.2020 13:00:00 17,1 2,7 16 8 30 16 NW 20 0,0
13.07.2020 12:00:00 16,3 6,1 14 7 29 16 NW 20 0,0
13.07.2020 11:00:00 15,3 5,5 16 9 32 18 NW 20 0,0
13.07.2020 10:00:00 14,9 4,8 16 9 27 15 WNW 20 0,0
13.07.2020 09:00:00 14,7 4,4 13 7 22 12 NW 20 0,0
13.07.2020 08:00:00 14,2 4,5 14 8 21 12 NW 20 0,0
13.07.2020 07:00:00 13,4 4,3 9 5 18 10 WSW 20 0,0
13.07.2020 06:00:00 13,0 5,2 14 8 18 10 SW 20 0,0
13.07.2020 05:00:00 13,5 5,1 14 8 19 11 SSW 20 0,0
13.07.2020 04:00:00 13,8 4,6 17 9 29 16 S 20 0,0
13.07.2020 03:00:00 13,8 5,2 23 12 27 15 S 20 0,0
13.07.2020 02:00:00 13,9 6,0 21 12 31 17 SSE 20 0,0
13.07.2020 01:00:00 14,1 4,7 26 14 33 18 S 20 0,0
13.07.2020 00:00:00 14,6 3,7 31 17 36 20 SSE 20 0,0
12.07.2020 23:00:00 15,6 3,7 21 12 30 16 SE 20 0,0
12.07.2020 22:00:00 16,0 4,7 20 11 26 14 SSE 20 0,0
12.07.2020 21:00:00 17,3 3,9 15 8 23 12 ESE 20 0,0
12.07.2020 20:00:00 18,7 3,3 14 8 26 14 SE 20 0,0
12.07.2020 19:00:00 21,3 3,0 9 5 21 12 S 20 0,0
12.07.2020 18:00:00 21,1 0,3 8 4 22 12 SW 20 0,0
12.07.2020 17:00:00 20,0 -0,6 10 5 26 14 NNE 20 0,0
12.07.2020 16:00:00 19,8 0,7 16 8 31 17 WNW 20 0,0
12.07.2020 15:00:00 19,7 1,1 10 5 30 16 NW 20 0,0
12.07.2020 14:00:00 18,8 4,2 13 7 35 19 W 20 0,0
12.07.2020 13:00:00 18,1 3,5 8 4 23 13 SSW 20 0,0
12.07.2020 12:00:00 16,4 3,8 8 4 21 11 S 20 0,0
12.07.2020 11:00:00 15,5 1,6 8 5 20 11 NE 20 0,0
12.07.2020 10:00:00 14,6 0,8 13 7 24 13 NE 20 0,0
12.07.2020 09:00:00 13,8 0,1 17 9 25 13 NE 20 0,0
12.07.2020 08:00:00 13,3 -1,1 17 9 29 16 NE 20 0,0
12.07.2020 07:00:00 12,5 -4,2 13 7 26 14 ESE 20 0,0
12.07.2020 06:00:00 12,6 -9,2 11 6 20 11 SSE 20 0,0
12.07.2020 05:00:00 13,5 -12,7 8 4 21 11 SSE 20 0,0
12.07.2020 04:00:00 11,7 -6,2 20 11 21 12 N 20 0,0
12.07.2020 03:00:00 11,3 -7,1 18 10 27 15 N 20 0,0
12.07.2020 02:00:00 10,2 -3,2 26 14 40 22 N 20 0,0
12.07.2020 01:00:00 10,3 -0,8 33 18 46 25 N 20 0,0
12.07.2020 00:00:00 10,2 2,3 42 23 64 35 N 20 0,0
11.07.2020 23:00:00 10,8 3,3 52 28 75 41 N 20 0,0
11.07.2020 22:00:00 12,2 4,9 45 24 64 35 N 20 0,0
11.07.2020 21:00:00 13,9 4,7 35 19 51 28 N 20 0,0
11.07.2020 20:00:00 15,6 4,0 27 14 43 23 N 20 0,0
11.07.2020 19:00:00 16,7 4,0 23 13 44 24 N 20 0,0
11.07.2020 18:00:00 17,2 3,1 27 15 45 24 N 20 0,0
11.07.2020 17:00:00 17,4 4,7 25 13 46 25 N 20 0,0
11.07.2020 16:00:00 17,1 4,4 27 15 57 31 N 20 0,0
11.07.2020 15:00:00 16,1 6,8 23 13 48 26 N 20 0,0
11.07.2020 14:00:00 15,5 8,0 21 11 42 23 N 17 0,0
11.07.2020 13:00:00 14,0 9,4 27 14 53 29 N 18 0,0
11.07.2020 12:00:00 13,3 9,7 26 14 50 27 N 20 0,0
11.07.2020 11:00:00 12,5 9,7 33 18 51 27 N 20 0,0
11.07.2020 10:00:00 10,9 10,1 32 18 64 35 N 20 0,0
11.07.2020 09:00:00 10,2 10,0 40 22 60 33 N 19 0,0
11.07.2020 08:00:00 10,0 10,0 45 24 61 33 N 0,7 0,0
11.07.2020 07:00:00 10,3 10,3 37 20 57 31 N 0,1 0,0
11.07.2020 06:00:00 11,0 11,0 38 21 55 30 NNW 0,1 0,0
11.07.2020 05:00:00 11,5 11,5 34 18 50 27 NNW 0,1 0,0
11.07.2020 04:00:00 11,6 11,6 36 20 57 31 NNW 0,1 0,0
11.07.2020 03:00:00 11,8 11,8 45 25 57 31 NNW 4,9 0,0
11.07.2020 02:00:00 12,2 12,2 47 25 59 32 NNW 0,2 0,0
11.07.2020 01:00:00 12,6 12,1 41 22 61 33 NNW 8 0,0
11.07.2020 00:00:00 12,8 12,5 41 22 58 32 NNW 3,6 0,0
10.07.2020 23:00:00 13,6 12,8 35 19 63 34 N 11 0,0
10.07.2020 22:00:00 14,3 13,0 48 26 67 36 NW 19 0,0
10.07.2020 21:00:00 15,8 12,5 41 22 59 32 NW 20 0,0
10.07.2020 20:00:00 17,9 12,6 27 15 42 23 NW 20 0,0
10.07.2020 19:00:00 20,0 12,7 23 12 37 20 WNW 20 0,0
10.07.2020 18:00:00 20,9 12,6 22 12 42 23 W 20 0,0
10.07.2020 17:00:00 22,5 14,1 14 8 35 19 SW 20 0,0
10.07.2020 16:00:00 22,0 12,5 9 5 25 13 SW 20 0,0
10.07.2020 15:00:00 21,9 13,5 9 5 21 12 S 19 0,0
10.07.2020 14:00:00 22,2 13,3 6 3 25 13 ENE 20 0,0
10.07.2020 13:00:00 20,8 13,0 11 6 27 15 S 20 0,0
10.07.2020 12:00:00 20,2 13,2 11 6 25 13 S 20 0,0
10.07.2020 11:00:00 18,8 12,3 10 5 27 14 W 20 0,0
10.07.2020 10:00:00 17,4 11,9 18 10 39 21 W 20 0,0
10.07.2020 09:00:00 16,9 11,0 27 15 42 23 WNW 20 0,0
10.07.2020 08:00:00 16,9 10,0 30 16 36 19 WNW 20 0,0
10.07.2020 07:00:00 16,7 8,6 22 12 30 16 NW 20 0,0
10.07.2020 06:00:00 16,2 8,7 22 12 31 17 WNW 20 0,0
10.07.2020 05:00:00 16,1 9,5 22 12 31 17 W 20 0,0
10.07.2020 04:00:00 16,2 10,3 23 12 27 14 WNW 20 0,0
10.07.2020 03:00:00 17,3 8,2 24 13 31 17 NW 20 0,0
10.07.2020 02:00:00 16,4 9,6 31 17 35 19 WNW 20 0,0
10.07.2020 01:00:00 16,7 9,4 29 16 41 22 NW 20 0,0
10.07.2020 00:00:00 17,1 9,5 36 19 42 23 NW 20 0,0
09.07.2020 23:00:00 17,5 9,1 34 18 46 25 NW 20 0,0
09.07.2020 22:00:00 18,2 9,0 40 22 48 26 NW 20 0,0
09.07.2020 21:00:00 20,1 7,1 22 12 33 18 W 20 0,0
09.07.2020 20:00:00 21,9 8,4 15 8 31 17 W 20 0,0
09.07.2020 19:00:00 22,9 8,2 12 6 33 18 W 20 0,0
09.07.2020 18:00:00 23,2 5,6 13 7 36 19 SW 20 0,0
09.07.2020 17:00:00 23,2 6,0 12 7 26 14 SW 20 0,0
09.07.2020 16:00:00 23,2 9,6 11 6 27 15 S 20 0,0
09.07.2020 15:00:00 22,9 11,3 14 8 28 15 S 19 0,0
09.07.2020 14:00:00 22,5 8,9 14 8 27 14 S 19 0,0
09.07.2020 13:00:00 21,0 7,2 7 4 33 18 S 20 0,0
09.07.2020 12:00:00 19,7 5,3 16 9 33 18 WSW 20 0,0
09.07.2020 11:00:00 19,5 10,2 6 4 20 11 SW 19 0,0
09.07.2020 10:00:00 18,5 6,0 11 6 27 15 W 20 0,0
09.07.2020 09:00:00 18,1 7,8 8 4 18 10 WSW 20 0,0
09.07.2020 08:00:00 17,5 6,7 11 6 15 8 WNW 20 0,0
09.07.2020 07:00:00 16,8 5,4 12 7 19 10 NNW 20 0,0
09.07.2020 06:00:00 16,5 4,5 8 4 18 10 W 20 0,0
09.07.2020 05:00:00 16,3 4,6 14 8 25 13 W 20 0,0
09.07.2020 04:00:00 16,0 6,1 17 9 22 12 SW 20 0,0
09.07.2020 03:00:00 16,2 6,0 10 5 14 8 S 20 0,0
09.07.2020 02:00:00 16,5 6,9 12 6 16 8 S 20 0,0
09.07.2020 01:00:00 16,8 6,0 12 6 18 10 S 20 0,0
09.07.2020 00:00:00 17,1 5,1 13 7 17 9 S 20 0,0
08.07.2020 23:00:00 17,3 3,6 13 7 17 9 SSE 20 0,0
08.07.2020 22:00:00 17,8 2,9 11 6 13 7 ESE 20 0,0
08.07.2020 21:00:00 19,0 5,1 4 2 18 10 SSE 20 0,0
08.07.2020 20:00:00 20,0 6,3 8 5 19 10 SSE 20 0,0
08.07.2020 19:00:00 20,4 6,3 12 6 22 12 S 20 0,0
08.07.2020 18:00:00 20,8 7,4 14 8 26 14 S 19 0,0
08.07.2020 17:00:00 20,6 7,2 16 9 26 14 S 20 0,0

tt = Température de l'air
td = dewpoint
ff = Vitesse du vent
fx = gusts
dd = Direction du vent
vv = visibility
rr = Quantités de précipitations

stations d'obs. à proximité